Terminal Aerodrome Forecast
Issued by NWS Billings, MT

Home | Current Version | Previous Version | Text Only | Print | Product List | Glossary On
Versions: 1 2 3 4 5 6 7 8 9 10 11 12 13 14 15 16 17 18 19 20 21 22
000
FTUS45 KBYZ 101724
TAFBIL
TAF
KBIL 101724Z 1018/1118 19007KT P6SM VCSH FEW015 BKN030 OVC110
     FM101900 18009KT 5SM -SN BR SCT015 BKN025
      TEMPO 1019/1021 2SM -SN BR BKN015 OVC025
     FM102300 22008KT P6SM VCSH SCT050
     FM110300 30008KT P6SM SKC
     FM111200 23006KT P6SM BKN060=

USA.gov is the U.S. government's official web portal to all federal, state and local government web resources and services.